Página principal
METAR-TAF:

METAR-TAF

Aeroportos :

Bermudas, Bermudas

Aeroporto Internacional L.F. Wade

latitude: 32-22N, longitude: 064-41W, altura: 6 m

Observação actual do tempo

O boletim foi feito há 36 minutos, às 12:55 UTC
Vento 8 kt de norte, variando entre noroeste e nor-nordeste
Temperatura 19°C
Humidade 52%
Pressão 1024 hPa
Visibilidade 10 km ou mais
Nuvens dispersasa uma altura de 4200 ft
Nuvens dispersasa uma altura de 30000 ft

METAR: TXKF 211255Z 35008KT 320V020 9999 SCT042 SCT300 19/09 Q1024

Hora: 10:31 (13:31 UTC)

Previsão

O boletim foi feito há 1 hora e 56 minutos, às 11:35 UTC
Previsão válida de 21 às 12 UTC a 22 às 12 UTC
Vento 10 kt de norte
Visibilidade 10 km ou mais
Poucas nuvensa uma altura de 4000 ft
Nuvens dispersasa uma altura de 30000 ft

TAF: TXKF 211135Z 2112/2212 36010KT 9999 FEW040 SCT300

Observações e previsões do tempo de mais de 4000 aeroportos (mensagens METAR e TAF).

As estações disponíveis são os pontos amarelos e vermelhos sobre o mapa.

Mova o rato sobre o mapa para ver o nome da estação.

Depois clique no ponto para visualizar as observações e previsões meteorológicas.

Para alterar o mapa : clique nos botões verdes com uma cruz preta para aumentar o zoom; no botão verde com uma pitada de zoom; ou nas setas verdes para mapas adjacentes.


METAR-TAF: